createdAt,value
2022-12-11T00:00:09.302Z,16.17
2022-12-11T00:02:35.994Z,17.13
2022-12-11T00:05:02.712Z,17.55
2022-12-11T00:07:29.432Z,15.00
2022-12-11T00:09:56.197Z,16.00
2022-12-11T00:12:22.980Z,16.52
2022-12-11T00:14:49.678Z,15.07
2022-12-11T00:17:16.394Z,16.13
2022-12-11T00:19:43.133Z,14.60
2022-12-11T00:22:09.925Z,16.77
2022-12-11T00:24:36.654Z,15.60
2022-12-11T00:27:03.513Z,16.13
2022-12-11T00:29:30.274Z,14.60
2022-12-11T00:31:57.037Z,15.15
2022-12-11T00:34:23.805Z,15.85
2022-12-11T00:36:50.580Z,15.73
2022-12-11T00:39:17.275Z,15.02
2022-12-11T00:41:44.154Z,15.13
2022-12-11T09:42:58.924Z,7.28
2022-12-11T09:45:25.877Z,7.22
2022-12-11T09:47:55.842Z,6.88
2022-12-11T09:50:30.367Z,5.82
2022-12-11T09:53:05.972Z,6.40
2022-12-11T09:55:39.786Z,6.82
2022-12-11T09:58:31.017Z,6.63
2022-12-11T10:01:19.875Z,6.95
2022-12-11T10:04:13.120Z,5.78
2022-12-11T10:06:55.452Z,6.57
2022-12-11T10:09:40.897Z,6.72
2022-12-11T10:12:23.110Z,5.40
2022-12-11T10:15:15.817Z,5.78
2022-12-11T10:17:44.859Z,5.40
2022-12-11T10:20:31.127Z,5.95
2022-12-11T10:22:59.230Z,5.50
2022-12-11T10:25:44.864Z,5.25
2022-12-11T10:28:16.224Z,4.95
2022-12-11T10:31:19.029Z,4.60
2022-12-11T10:33:59.981Z,4.10
2022-12-11T10:36:34.345Z,4.28
2022-12-11T10:39:01.716Z,4.50
2022-12-11T10:41:39.707Z,4.18
2022-12-11T10:44:23.879Z,3.47
2022-12-11T10:47:14.229Z,4.10
2022-12-11T10:49:58.561Z,4.40
2022-12-11T10:52:30.015Z,3.85
2022-12-11T10:55:02.158Z,4.07
2022-12-11T10:57:35.022Z,3.80
2022-12-11T11:00:05.193Z,3.80
2022-12-11T11:05:13.000Z,3.80
2022-12-11T11:07:40.124Z,4.20
2022-12-11T11:10:13.598Z,3.65
2022-12-11T11:12:47.278Z,3.70
2022-12-11T11:15:17.716Z,4.10
2022-12-11T11:17:55.421Z,3.92
2022-12-11T11:20:29.223Z,4.10
2022-12-11T11:23:05.014Z,4.22
2022-12-11T11:25:33.630Z,4.22
2022-12-11T11:28:05.167Z,4.07
2022-12-11T11:30:40.457Z,3.83
2022-12-11T11:33:20.990Z,4.22
2022-12-11T11:35:59.079Z,3.92
2022-12-11T11:38:30.980Z,3.97
2022-12-11T11:41:14.657Z,3.63
2022-12-11T11:44:00.306Z,3.80
2022-12-11T11:46:36.587Z,3.53
2022-12-11T11:49:25.956Z,3.53
2022-12-11T11:52:05.832Z,3.47
2022-12-11T11:54:57.441Z,3.83
2022-12-11T11:57:27.006Z,3.97
2022-12-11T11:59:58.454Z,4.10
2022-12-11T12:02:25.496Z,3.78
2022-12-11T12:04:53.272Z,3.80
2022-12-11T12:07:44.412Z,4.03
2022-12-11T12:10:20.520Z,3.33
2022-12-11T12:13:01.061Z,3.72
2022-12-11T12:15:59.696Z,3.78
2022-12-11T12:18:33.817Z,4.18
2022-12-11T12:21:02.663Z,4.30
2022-12-11T12:23:44.816Z,3.92
2022-12-11T12:26:22.103Z,4.03
2022-12-11T12:28:52.957Z,3.67
2022-12-11T12:31:28.719Z,4.15
2022-12-11T12:34:10.577Z,4.63
2022-12-11T12:37:25.295Z,4.10
2022-12-11T12:39:58.023Z,5.32
2022-12-11T12:42:43.617Z,4.28
2022-12-11T12:45:16.464Z,3.90
2022-12-11T12:47:50.339Z,4.50
2022-12-11T12:50:26.436Z,4.57
2022-12-11T12:52:55.397Z,3.88
2022-12-11T12:55:28.896Z,4.05
2022-12-11T12:58:07.003Z,4.13
2022-12-11T13:00:40.574Z,3.45
2022-12-11T13:03:17.287Z,3.65
2022-12-11T13:05:55.283Z,4.85
2022-12-11T13:08:34.709Z,4.18
2022-12-11T13:11:10.360Z,4.07
2022-12-11T13:13:43.605Z,4.05
2022-12-11T13:16:16.344Z,4.03
2022-12-11T13:18:47.447Z,4.57
2022-12-11T13:21:36.436Z,4.40
2022-12-11T13:24:21.369Z,4.60
2022-12-11T13:26:50.142Z,4.57
2022-12-11T13:29:38.326Z,4.47
2022-12-11T13:32:08.080Z,4.07
2022-12-11T13:34:39.145Z,4.90
2022-12-11T13:37:07.495Z,4.03
2022-12-11T13:39:38.176Z,4.60
2022-12-11T13:42:11.823Z,4.45
2022-12-11T13:44:42.538Z,4.50
2022-12-11T13:47:14.861Z,4.75
2022-12-11T13:49:46.166Z,4.75
2022-12-11T13:52:26.051Z,4.80
2022-12-11T13:54:54.544Z,5.03
2022-12-11T13:57:26.253Z,4.07
2022-12-11T13:59:55.789Z,4.63
2022-12-11T14:05:13.793Z,4.53
2022-12-11T14:07:49.234Z,4.25
2022-12-11T14:10:27.369Z,4.65
2022-12-11T14:12:54.289Z,4.97
2022-12-11T14:15:21.518Z,4.43
2022-12-11T14:17:51.881Z,5.05
2022-12-11T14:20:23.175Z,5.20
2022-12-11T14:22:50.366Z,4.47
2022-12-11T14:25:22.861Z,4.55
2022-12-11T14:27:52.073Z,4.65
2022-12-11T14:30:34.245Z,5.23
2022-12-11T14:33:05.306Z,4.93
2022-12-11T14:35:39.207Z,5.20
2022-12-11T14:38:24.026Z,4.43
2022-12-11T14:40:56.831Z,3.88
2022-12-11T14:43:31.367Z,4.05
2022-12-11T14:46:05.034Z,4.25
2022-12-11T14:48:39.222Z,4.57
2022-12-11T14:51:12.626Z,4.40
2022-12-11T14:53:43.996Z,4.70
2022-12-11T14:56:17.899Z,4.65
2022-12-11T14:58:56.880Z,4.40
2022-12-11T15:01:29.851Z,4.82
2022-12-11T15:04:24.173Z,4.95
2022-12-11T15:06:52.276Z,4.47
2022-12-11T15:09:20.386Z,5.00
2022-12-11T15:11:48.985Z,4.85
2022-12-11T15:14:21.465Z,5.00
2022-12-11T15:16:49.404Z,4.72
2022-12-11T15:19:24.939Z,5.25
2022-12-11T15:21:52.235Z,5.25
2022-12-11T15:24:30.647Z,5.15
2022-12-11T15:26:59.890Z,5.65
2022-12-11T15:29:38.861Z,5.20
2022-12-11T15:32:08.564Z,5.45
2022-12-11T15:34:43.396Z,6.07
2022-12-11T15:37:30.849Z,5.80
2022-12-11T15:40:00.842Z,5.47
2022-12-11T15:42:43.095Z,5.65
2022-12-11T15:45:23.452Z,5.30
2022-12-11T15:47:51.072Z,5.28
2022-12-11T15:50:26.215Z,5.18
2022-12-11T15:52:55.153Z,5.55
2022-12-11T15:55:23.422Z,5.30
2022-12-11T15:57:59.573Z,5.50
2022-12-11T16:00:28.141Z,5.53
2022-12-11T16:02:56.047Z,5.35
2022-12-11T16:05:23.404Z,5.00
2022-12-11T16:07:54.787Z,5.20
2022-12-11T16:10:22.278Z,5.30
2022-12-11T16:12:49.920Z,5.07
2022-12-11T16:15:23.253Z,5.05
2022-12-11T16:17:50.753Z,4.90
2022-12-11T16:20:17.512Z,5.43
2022-12-11T16:22:44.693Z,5.57
2022-12-11T16:25:11.666Z,5.28
2022-12-11T16:27:38.648Z,5.10
2022-12-11T16:30:05.704Z,5.45
2022-12-11T16:32:32.715Z,5.30
2022-12-11T16:35:02.167Z,5.85
2022-12-11T16:37:28.951Z,5.40
2022-12-11T16:39:55.772Z,5.65
2022-12-11T16:42:22.456Z,6.60
2022-12-11T16:44:49.193Z,5.90
2022-12-11T16:47:16.089Z,5.97
2022-12-11T16:49:43.384Z,6.40
2022-12-11T16:52:10.802Z,6.45
2022-12-11T16:54:40.612Z,6.55
2022-12-11T16:57:07.248Z,6.75
2022-12-11T16:59:37.499Z,7.32
2022-12-11T17:02:04.983Z,7.45
2022-12-11T17:04:32.073Z,7.32
2022-12-11T17:06:58.813Z,7.43
2022-12-11T17:09:25.461Z,6.40
2022-12-11T17:11:53.351Z,8.27
2022-12-11T17:14:20.452Z,8.23
2022-12-11T17:16:48.150Z,7.95
2022-12-11T17:19:15.746Z,8.02
2022-12-11T17:21:47.003Z,8.27
2022-12-11T17:24:17.921Z,7.97
2022-12-11T17:26:44.610Z,7.63
2022-12-11T17:29:12.240Z,8.30
2022-12-11T17:31:39.683Z,7.65
2022-12-11T17:34:06.888Z,7.25
2022-12-11T17:36:33.779Z,7.55
2022-12-11T17:39:00.737Z,7.72
2022-12-11T17:41:27.447Z,6.90
2022-12-11T17:43:54.278Z,7.38
2022-12-11T17:46:21.809Z,6.50
2022-12-11T17:48:49.119Z,5.95
2022-12-11T17:51:21.226Z,7.22
2022-12-11T17:53:48.119Z,6.53
2022-12-11T17:56:14.846Z,5.53
2022-12-11T17:58:41.993Z,6.75
2022-12-11T18:01:10.337Z,6.93
2022-12-11T18:03:38.171Z,6.10
2022-12-11T18:06:08.590Z,6.70
2022-12-11T18:08:36.013Z,7.00
2022-12-11T18:11:29.143Z,6.90
2022-12-11T18:13:56.068Z,6.00
2022-12-11T18:16:29.124Z,6.72
2022-12-11T18:18:56.655Z,6.60
2022-12-11T18:21:29.476Z,6.30
2022-12-11T18:23:56.363Z,5.82
2022-12-11T18:26:23.407Z,5.72
2022-12-11T18:28:53.118Z,6.15
2022-12-11T18:31:21.096Z,6.28
2022-12-11T18:33:48.196Z,6.47
2022-12-11T18:36:17.239Z,5.60
2022-12-11T18:38:44.609Z,5.60
2022-12-11T18:41:13.192Z,4.75
2022-12-11T18:43:40.999Z,4.93
2022-12-11T18:46:14.097Z,4.68
2022-12-11T18:48:42.036Z,5.18
2022-12-11T18:51:11.684Z,4.80
2022-12-11T18:53:41.697Z,4.22
2022-12-11T18:56:11.693Z,4.68
2022-12-11T18:58:38.573Z,4.78
2022-12-11T19:01:10.934Z,5.20
2022-12-11T19:03:38.169Z,4.70
2022-12-11T19:06:14.488Z,5.20
2022-12-11T19:08:41.879Z,4.70
2022-12-11T19:11:09.640Z,4.25
2022-12-11T19:13:36.490Z,5.35
2022-12-11T19:16:03.404Z,4.80
2022-12-11T19:18:30.287Z,4.28
2022-12-11T19:21:08.048Z,4.82
2022-12-11T19:23:35.396Z,4.53
2022-12-11T19:26:02.443Z,5.00
2022-12-11T19:28:29.488Z,4.57
2022-12-11T19:30:56.170Z,4.35
2022-12-11T19:33:22.961Z,5.30
2022-12-11T19:35:49.582Z,4.45
2022-12-11T19:38:16.254Z,4.72
2022-12-11T19:40:44.445Z,4.80
2022-12-11T19:43:11.724Z,4.97
2022-12-11T19:45:39.018Z,5.40
2022-12-11T19:48:06.006Z,4.88
2022-12-11T19:50:35.459Z,5.00
2022-12-11T19:53:02.105Z,5.32
2022-12-11T19:55:28.946Z,6.10
2022-12-11T19:57:55.916Z,5.07
2022-12-11T20:00:22.646Z,4.97
2022-12-11T20:02:49.396Z,5.40
2022-12-11T20:05:16.496Z,4.13
2022-12-11T20:07:46.572Z,4.40
2022-12-11T20:12:40.142Z,4.97
2022-12-11T20:15:07.280Z,5.15
2022-12-11T20:17:33.982Z,4.10
2022-12-11T20:20:00.877Z,5.45
2022-12-11T20:22:27.519Z,4.88
2022-12-11T20:24:54.244Z,5.05
2022-12-11T20:27:20.933Z,5.03
2022-12-11T20:29:47.671Z,5.95
2022-12-11T20:32:14.422Z,4.85
2022-12-11T20:34:41.330Z,5.50
2022-12-11T20:37:08.167Z,5.70
2022-12-11T20:39:35.721Z,6.43
2022-12-11T20:42:04.873Z,6.40
2022-12-11T20:44:32.476Z,6.20
2022-12-11T20:46:59.337Z,5.35
2022-12-11T20:49:26.433Z,5.50
2022-12-11T20:51:53.969Z,5.70
2022-12-11T20:54:20.808Z,5.63
2022-12-11T20:56:47.750Z,5.80
2022-12-11T20:59:14.549Z,5.63
2022-12-11T21:01:41.501Z,5.43
2022-12-11T21:04:08.422Z,5.97
2022-12-11T21:06:37.565Z,5.25
2022-12-11T21:09:25.409Z,6.63
2022-12-11T21:11:52.583Z,6.57
2022-12-11T21:14:20.111Z,6.97
2022-12-11T21:16:47.100Z,6.85
2022-12-11T21:19:17.039Z,6.22
2022-12-11T21:21:45.330Z,6.85
2022-12-11T21:24:26.544Z,7.53
2022-12-11T21:26:56.179Z,7.25
2022-12-11T21:29:27.727Z,7.63
2022-12-11T21:31:54.614Z,7.75
2022-12-11T21:34:25.356Z,7.57
2022-12-11T21:36:56.621Z,7.15
2022-12-11T21:39:24.383Z,7.78
2022-12-11T21:41:52.622Z,7.90
2022-12-11T21:47:06.314Z,7.47
2022-12-11T21:49:32.968Z,7.38
2022-12-11T21:52:00.128Z,7.30
2022-12-11T21:54:27.007Z,7.55
2022-12-11T21:56:54.634Z,7.40
2022-12-11T21:59:21.404Z,8.57
2022-12-11T22:01:48.122Z,8.07
2022-12-11T22:04:16.049Z,8.32
2022-12-11T22:06:43.685Z,7.65
2022-12-11T22:09:12.523Z,8.48
2022-12-11T22:11:40.542Z,8.25
2022-12-11T22:14:07.952Z,8.45
2022-12-11T22:16:36.551Z,8.15
2022-12-11T22:19:03.917Z,7.82
2022-12-11T22:21:30.714Z,7.97
2022-12-11T22:23:57.441Z,8.15
2022-12-11T22:26:26.151Z,8.88
2022-12-11T22:28:53.712Z,7.70
2022-12-11T22:31:23.156Z,8.95
2022-12-11T22:33:51.600Z,8.25
2022-12-11T22:36:19.028Z,8.50
2022-12-11T22:38:46.636Z,8.40
2022-12-11T22:41:22.010Z,9.13
2022-12-11T22:43:49.583Z,8.95
2022-12-11T22:46:18.072Z,8.23
2022-12-11T22:48:44.858Z,8.63
2022-12-11T22:51:12.083Z,8.07
2022-12-11T22:53:38.851Z,7.25
2022-12-11T22:56:10.098Z,7.32
2022-12-11T22:58:37.097Z,7.53
2022-12-11T23:01:08.266Z,7.70
2022-12-11T23:03:35.068Z,7.90
2022-12-11T23:06:05.548Z,8.15
2022-12-11T23:08:33.155Z,7.68
2022-12-11T23:11:00.088Z,9.20
2022-12-11T23:13:26.821Z,9.70
2022-12-11T23:15:53.550Z,9.27
2022-12-11T23:18:20.275Z,9.02
2022-12-11T23:20:48.521Z,9.60
2022-12-11T23:23:15.215Z,9.45
2022-12-11T23:25:41.983Z,9.23
2022-12-11T23:28:08.836Z,10.13
2022-12-11T23:30:37.546Z,9.32
2022-12-11T23:33:06.602Z,9.13
2022-12-11T23:35:33.582Z,9.82
2022-12-11T23:38:00.268Z,10.05
2022-12-11T23:40:27.108Z,10.07
2022-12-11T23:42:53.995Z,9.02
2022-12-11T23:45:21.203Z,9.30
2022-12-11T23:47:48.452Z,9.30
2022-12-11T23:50:15.649Z,9.63
2022-12-11T23:52:42.363Z,9.40
2022-12-11T23:55:10.603Z,9.13
2022-12-11T23:57:37.821Z,9.32
